createdAt,value
2018-04-14T00:01:53.382Z,33.97
2018-04-14T00:04:20.783Z,33.80
2018-04-14T00:06:48.171Z,37.50
2018-04-14T00:09:15.558Z,38.43
2018-04-14T00:11:42.962Z,40.80
2018-04-14T00:14:10.347Z,39.77
2018-04-14T00:16:37.731Z,37.47
2018-04-14T00:19:05.118Z,35.70
2018-04-14T00:21:32.506Z,37.10
2018-04-14T00:23:59.975Z,33.83
2018-04-14T00:26:27.371Z,34.20
2018-04-14T00:28:54.759Z,31.53
2018-04-14T00:31:22.147Z,32.50
2018-04-14T00:33:49.684Z,33.50
2018-04-14T00:36:17.070Z,31.97
2018-04-14T00:38:44.467Z,29.57
2018-04-14T00:41:11.859Z,28.93
2018-04-14T00:43:39.246Z,29.87
2018-04-14T00:46:06.637Z,30.20
2018-04-14T00:48:34.020Z,31.40
2018-04-14T00:51:01.423Z,34.83
2018-04-14T00:53:40.631Z,37.00
2018-04-14T00:56:08.026Z,37.37
2018-04-14T00:58:35.414Z,36.03
2018-04-14T01:01:02.805Z,35.27
2018-04-14T01:03:30.195Z,33.53
2018-04-14T01:05:57.582Z,31.00
2018-04-14T01:08:24.989Z,33.70
2018-04-14T01:10:52.380Z,31.63
2018-04-14T01:13:19.763Z,31.23
2018-04-14T01:15:47.159Z,31.03
2018-04-14T01:18:14.550Z,28.97
2018-04-14T01:20:41.943Z,28.00
2018-04-14T01:23:09.326Z,27.37
2018-04-14T01:25:36.715Z,27.93
2018-04-14T01:28:04.109Z,27.27
2018-04-14T01:30:31.504Z,29.70
2018-04-14T01:32:58.900Z,27.00
2018-04-14T01:35:26.275Z,27.90
2018-04-14T01:37:53.667Z,26.97
2018-04-14T01:40:21.062Z,26.60
2018-04-14T01:42:48.453Z,29.33
2018-04-14T01:45:15.847Z,27.97
2018-04-14T01:47:43.234Z,29.27
2018-04-14T01:50:10.678Z,30.33
2018-04-14T01:52:38.058Z,30.40
2018-04-14T01:55:05.447Z,30.53
2018-04-14T01:57:32.833Z,30.70
2018-04-14T02:00:00.219Z,30.27
2018-04-14T02:02:27.616Z,33.47
2018-04-14T02:04:55.007Z,30.23
2018-04-14T02:07:22.403Z,33.13
2018-04-14T02:09:49.791Z,30.60
2018-04-14T02:12:17.174Z,29.47
2018-04-14T02:14:44.568Z,32.30
2018-04-14T02:17:11.947Z,31.03
2018-04-14T02:19:39.339Z,30.77
2018-04-14T02:22:06.722Z,31.03
2018-04-14T02:24:34.119Z,29.50
2018-04-14T02:27:01.508Z,29.30
2018-04-14T02:29:28.890Z,29.00
2018-04-14T02:31:56.282Z,31.00
2018-04-14T02:34:23.668Z,27.73
2018-04-14T02:36:51.059Z,30.20
2018-04-14T02:39:18.451Z,30.30
2018-04-14T02:41:45.850Z,31.93
2018-04-14T02:44:13.230Z,31.53
2018-04-14T02:46:40.623Z,30.13
2018-04-14T02:49:08.015Z,30.10
2018-04-14T02:51:35.403Z,28.43
2018-04-14T02:54:02.799Z,27.27
2018-04-14T02:56:30.183Z,25.40
2018-04-14T02:58:57.619Z,24.87
2018-04-14T03:01:25.009Z,24.70
2018-04-14T03:03:52.391Z,22.83
2018-04-14T03:06:19.783Z,22.20
2018-04-14T03:08:47.167Z,22.10
2018-04-14T03:11:14.595Z,21.60
2018-04-14T03:13:41.975Z,21.87
2018-04-14T03:16:09.367Z,21.40
2018-04-14T03:18:36.762Z,21.93
2018-04-14T03:21:04.150Z,20.90
2018-04-14T03:23:31.538Z,21.20
2018-04-14T03:25:58.931Z,20.70
2018-04-14T03:28:26.635Z,20.10
2018-04-14T03:30:54.019Z,19.53
2018-04-14T03:33:21.402Z,19.67
2018-04-14T03:35:48.799Z,20.67
2018-04-14T03:38:16.187Z,19.27
2018-04-14T03:40:43.580Z,19.47
2018-04-14T03:43:10.963Z,19.17
2018-04-14T03:45:38.380Z,18.43
2018-04-14T03:48:05.738Z,19.17
2018-04-14T03:50:33.131Z,18.97
2018-04-14T03:53:00.515Z,20.63
2018-04-14T03:55:27.907Z,19.00
2018-04-14T03:57:55.291Z,20.93
2018-04-14T04:00:22.678Z,20.87
2018-04-14T04:02:50.071Z,19.60
2018-04-14T04:05:17.453Z,19.30
2018-04-14T04:07:44.847Z,19.53
2018-04-14T04:10:12.382Z,19.77
2018-04-14T04:12:39.772Z,19.33
2018-04-14T04:15:07.159Z,19.90
2018-04-14T04:17:34.543Z,18.40
2018-04-14T04:20:13.746Z,19.87
2018-04-14T04:22:52.915Z,18.40
2018-04-14T04:25:29.959Z,19.10
2018-04-14T04:27:57.364Z,18.50
2018-04-14T04:30:25.223Z,19.70
2018-04-14T04:32:52.609Z,19.30
2018-04-14T04:35:20.011Z,18.30
2018-04-14T04:37:47.398Z,17.97
2018-04-14T04:40:14.795Z,17.60
2018-04-14T04:42:42.182Z,17.43
2018-04-14T04:45:09.570Z,18.83
2018-04-14T04:47:36.975Z,17.30
2018-04-14T04:50:04.363Z,17.40
2018-04-14T04:52:31.751Z,17.13
2018-04-14T04:54:59.171Z,17.40
2018-04-14T04:57:26.552Z,17.50
2018-04-14T04:59:53.947Z,17.80
2018-04-14T05:02:21.330Z,17.30
2018-04-14T05:04:48.735Z,16.97
2018-04-14T05:07:16.119Z,18.00
2018-04-14T05:09:43.510Z,17.70
2018-04-14T05:12:10.903Z,18.40
2018-04-14T05:14:38.295Z,18.07
2018-04-14T05:17:05.691Z,16.90
2018-04-14T05:19:33.071Z,15.73
2018-04-14T05:22:00.806Z,16.43
2018-04-14T05:24:28.191Z,17.17
2018-04-14T05:26:55.583Z,16.30
2018-04-14T05:29:22.970Z,16.07
2018-04-14T05:31:50.359Z,18.00
2018-04-14T05:34:17.751Z,17.03
2018-04-14T05:36:45.154Z,17.10
2018-04-14T05:39:12.548Z,16.80
2018-04-14T05:41:39.930Z,16.53
2018-04-14T05:44:07.315Z,15.63
2018-04-14T05:46:34.703Z,15.53
2018-04-14T05:49:02.092Z,15.43
2018-04-14T05:51:29.483Z,15.77
2018-04-14T05:53:56.867Z,16.63
2018-04-14T05:56:24.472Z,16.67
2018-04-14T05:58:52.170Z,17.67
2018-04-14T06:01:19.554Z,16.40
2018-04-14T06:03:46.942Z,15.50
2018-04-14T06:06:14.326Z,16.50
2018-04-14T06:08:41.718Z,16.93
2018-04-14T06:11:09.111Z,17.07
2018-04-14T06:13:36.510Z,17.23
2018-04-14T06:16:03.898Z,18.03
2018-04-14T06:18:31.291Z,17.03
2018-04-14T06:20:58.725Z,17.50
2018-04-14T06:23:26.115Z,17.77
2018-04-14T06:25:53.512Z,17.17
2018-04-14T06:28:21.156Z,16.87
2018-04-14T06:30:48.979Z,17.70
2018-04-14T06:33:16.366Z,17.37
2018-04-14T06:35:43.755Z,17.63
2018-04-14T06:38:11.148Z,18.37
2018-04-14T06:40:38.535Z,17.67
2018-04-14T06:43:05.932Z,17.37
2018-04-14T06:45:33.319Z,17.40
2018-04-14T06:48:00.719Z,16.50
2018-04-14T06:50:28.121Z,17.67
2018-04-14T06:52:55.516Z,17.17
2018-04-14T06:55:22.906Z,17.83
2018-04-14T06:57:50.295Z,18.37
2018-04-14T07:00:17.690Z,18.10
2018-04-14T07:02:45.084Z,19.20
2018-04-14T07:05:12.479Z,19.20
2018-04-14T07:07:39.867Z,23.77
2018-04-14T07:10:07.262Z,21.80
2018-04-14T07:12:34.650Z,24.17
2018-04-14T07:15:02.044Z,25.40
2018-04-14T07:17:29.487Z,23.47
2018-04-14T07:19:56.823Z,22.87
2018-04-14T07:22:24.230Z,25.87
2018-04-14T07:24:51.619Z,29.23
2018-04-14T07:27:19.079Z,27.57
2018-04-14T07:29:46.496Z,33.73
2018-04-14T07:32:13.951Z,30.83
2018-04-14T07:34:41.330Z,33.87
2018-04-14T07:37:08.715Z,36.60
2018-04-14T07:39:36.427Z,40.80
2018-04-14T07:42:03.848Z,45.43
2018-04-14T07:44:31.237Z,50.50
2018-04-14T07:46:58.631Z,41.60
2018-04-14T07:49:26.012Z,47.17
2018-04-14T07:51:53.403Z,45.67
2018-04-14T07:54:20.794Z,49.57
2018-04-14T07:56:48.199Z,73.87
2018-04-14T07:59:15.599Z,71.27
2018-04-14T08:01:43.075Z,48.30
2018-04-14T08:04:10.468Z,67.77
2018-04-14T08:06:37.862Z,68.80
2018-04-14T08:09:05.975Z,64.20
2018-04-14T08:11:33.404Z,71.80
2018-04-14T08:14:00.758Z,71.30
2018-04-14T08:16:28.151Z,66.80
2018-04-14T08:18:55.535Z,73.80
2018-04-14T08:21:22.927Z,66.60
2018-04-14T08:23:50.315Z,62.83
2018-04-14T08:26:17.775Z,64.67
2018-04-14T08:28:45.170Z,67.10
2018-04-14T08:31:12.589Z,63.40
2018-04-14T08:33:39.998Z,57.73
2018-04-14T08:36:07.395Z,61.40
2018-04-14T08:38:34.786Z,63.63
2018-04-14T08:41:02.199Z,63.47
2018-04-14T08:43:29.595Z,55.60
2018-04-14T08:45:56.994Z,51.77
2018-04-14T08:48:24.418Z,55.30
2018-04-14T08:50:51.814Z,50.93
2018-04-14T08:53:19.203Z,48.77
2018-04-14T08:55:46.602Z,56.77
2018-04-14T08:58:13.985Z,59.70
2018-04-14T09:00:41.382Z,59.77
2018-04-14T09:03:08.781Z,70.87
2018-04-14T09:05:36.161Z,73.10
2018-04-14T09:08:03.555Z,73.37
2018-04-14T09:10:30.939Z,78.50
2018-04-14T09:12:58.351Z,82.37
2018-04-14T09:15:25.754Z,77.83
2018-04-14T09:17:53.222Z,83.03
2018-04-14T09:20:20.615Z,84.90
2018-04-14T09:22:48.007Z,84.83
2018-04-14T09:25:15.400Z,88.33
2018-04-14T09:27:42.783Z,86.80
2018-04-14T09:30:10.183Z,79.80
2018-04-14T09:32:37.567Z,82.03
2018-04-14T09:35:04.966Z,86.10
2018-04-14T09:37:32.378Z,83.17
2018-04-14T09:39:59.762Z,85.30
2018-04-14T09:42:27.160Z,76.13
2018-04-14T09:44:54.555Z,83.20
2018-04-14T09:47:21.951Z,78.90
2018-04-14T09:49:49.341Z,82.70
2018-04-14T09:52:16.727Z,88.00
2018-04-14T09:54:44.123Z,85.90
2018-04-14T09:57:11.519Z,81.57
2018-04-14T09:59:38.903Z,75.90
2018-04-14T10:02:06.295Z,85.87
2018-04-14T10:04:33.695Z,94.67
2018-04-14T10:07:01.079Z,93.90
2018-04-14T10:09:28.470Z,85.67
2018-04-14T10:11:55.866Z,96.07
2018-04-14T10:14:23.261Z,100.50
2018-04-14T10:16:50.663Z,87.23
2018-04-14T10:19:18.047Z,91.10
2018-04-14T10:21:45.449Z,91.53
2018-04-14T10:24:12.830Z,97.60
2018-04-14T10:26:40.224Z,97.53
2018-04-14T10:29:07.713Z,95.80
2018-04-14T10:31:35.091Z,96.70
2018-04-14T10:34:02.487Z,90.67
2018-04-14T10:36:29.870Z,98.30
2018-04-14T10:38:57.266Z,94.30
2018-04-14T10:41:24.674Z,98.73
2018-04-14T10:43:52.112Z,93.57
2018-04-14T10:46:19.451Z,97.50
2018-04-14T10:48:46.846Z,96.93
2018-04-14T10:51:14.246Z,95.10
2018-04-14T10:53:41.632Z,92.73
2018-04-14T10:56:09.024Z,93.07
2018-04-14T10:58:36.418Z,99.67
2018-04-14T11:01:03.799Z,71.33
2018-04-14T11:03:31.199Z,56.87
2018-04-14T11:05:58.590Z,59.60
2018-04-14T11:08:25.978Z,60.47
2018-04-14T11:10:53.367Z,62.93
2018-04-14T11:13:20.848Z,61.60
2018-04-14T11:15:48.239Z,64.23
2018-04-14T11:18:15.635Z,66.47
2018-04-14T11:20:43.031Z,60.90
2018-04-14T11:23:10.419Z,58.37
2018-04-14T11:25:37.832Z,59.30
2018-04-14T11:28:05.254Z,61.47
2018-04-14T11:30:33.046Z,65.03
2018-04-14T11:33:00.436Z,63.40
2018-04-14T11:35:27.819Z,62.60
2018-04-14T11:37:55.215Z,62.30
2018-04-14T11:40:22.610Z,57.23
2018-04-14T11:42:49.998Z,59.13
2018-04-14T11:45:17.390Z,61.23
2018-04-14T11:47:44.783Z,64.93
2018-04-14T11:50:12.170Z,57.83
2018-04-14T11:52:39.563Z,67.70
2018-04-14T11:55:06.959Z,67.60
2018-04-14T11:57:34.372Z,68.23
2018-04-14T12:00:01.739Z,66.17
2018-04-14T12:02:29.126Z,69.13
2018-04-14T12:04:56.511Z,62.20
2018-04-14T12:07:23.903Z,63.47
2018-04-14T12:09:51.325Z,64.90
2018-04-14T12:12:20.355Z,58.77
2018-04-14T12:14:47.787Z,60.87
2018-04-14T12:17:15.131Z,65.27
2018-04-14T12:19:42.528Z,58.77
2018-04-14T12:22:09.915Z,61.10
2018-04-14T12:24:37.306Z,59.80
2018-04-14T12:27:04.696Z,57.80
2018-04-14T12:29:32.092Z,58.23
2018-04-14T12:31:59.487Z,62.40
2018-04-14T12:34:26.876Z,59.23
2018-04-14T12:36:54.595Z,58.43
2018-04-14T12:39:21.991Z,61.20
2018-04-14T12:41:49.380Z,62.73
2018-04-14T12:44:16.774Z,57.13
2018-04-14T12:46:44.159Z,58.33
2018-04-14T12:49:11.815Z,57.37
2018-04-14T12:51:39.203Z,57.67
2018-04-14T12:54:06.603Z,53.67
2018-04-14T12:56:33.995Z,56.30
2018-04-14T12:59:01.383Z,54.07
2018-04-14T13:01:28.780Z,57.57
2018-04-14T13:03:56.166Z,60.23
2018-04-14T13:06:23.555Z,55.40
2018-04-14T13:08:50.956Z,58.50
2018-04-14T13:11:18.342Z,52.37
2018-04-14T13:13:45.734Z,61.27
2018-04-14T13:16:13.126Z,64.10
2018-04-14T13:18:40.523Z,58.07
2018-04-14T13:21:07.923Z,55.30
2018-04-14T13:23:35.305Z,61.50
2018-04-14T13:26:02.722Z,56.30
2018-04-14T13:28:30.104Z,57.70
2018-04-14T13:30:57.499Z,56.53
2018-04-14T13:33:24.887Z,59.83
2018-04-14T13:35:52.275Z,56.03
2018-04-14T13:38:19.667Z,59.80
2018-04-14T13:40:47.055Z,57.93
2018-04-14T13:43:14.500Z,53.23
2018-04-14T13:45:41.874Z,55.77
2018-04-14T13:48:09.279Z,55.73
2018-04-14T13:50:36.663Z,49.27
2018-04-14T13:55:54.900Z,52.60
2018-04-14T13:58:22.290Z,53.87
2018-04-14T14:00:49.680Z,51.17
2018-04-14T14:03:17.079Z,54.10
2018-04-14T14:05:44.463Z,53.27
2018-04-14T14:08:11.854Z,50.53
2018-04-14T14:10:39.247Z,45.17
2018-04-14T14:13:06.631Z,50.13
2018-04-14T14:15:34.171Z,48.60
2018-04-14T14:18:01.568Z,48.33
2018-04-14T14:20:28.963Z,47.73
2018-04-14T14:22:56.355Z,46.60
2018-04-14T14:25:23.761Z,44.93
2018-04-14T14:27:51.147Z,44.93
2018-04-14T14:30:18.535Z,45.20
2018-04-14T14:32:45.926Z,41.23
2018-04-14T14:35:13.411Z,41.30
2018-04-14T14:37:40.806Z,44.80
2018-04-14T14:40:08.198Z,45.33
2018-04-14T14:42:35.611Z,42.47
2018-04-14T14:45:03.026Z,46.93
2018-04-14T14:47:36.076Z,44.33
2018-04-14T14:50:09.152Z,43.50
2018-04-14T14:52:37.522Z,43.13
2018-04-14T14:55:04.919Z,44.97
2018-04-14T14:57:32.302Z,48.20
2018-04-14T14:59:59.703Z,43.63
2018-04-14T15:02:27.095Z,41.87
2018-04-14T15:04:54.496Z,48.33
2018-04-14T15:07:21.884Z,46.93
2018-04-14T15:09:49.262Z,42.07
2018-04-14T15:12:16.669Z,42.73
2018-04-14T15:14:44.039Z,41.17
2018-04-14T15:17:11.431Z,42.30
2018-04-14T15:19:38.856Z,41.93
2018-04-14T15:22:06.245Z,37.33
2018-04-14T15:24:33.632Z,38.90
2018-04-14T15:27:01.024Z,40.73
2018-04-14T15:29:28.416Z,40.67
2018-04-14T15:31:55.811Z,41.20
2018-04-14T15:34:23.195Z,39.57
2018-04-14T15:36:50.591Z,38.10
2018-04-14T15:39:17.979Z,40.20
2018-04-14T15:41:45.382Z,37.83
2018-04-14T15:44:12.783Z,37.70
2018-04-14T15:46:40.172Z,37.30
2018-04-14T15:49:07.558Z,34.77
2018-04-14T15:51:34.946Z,34.20
2018-04-14T15:54:02.340Z,33.93
2018-04-14T15:56:29.745Z,33.90
2018-04-14T15:58:57.122Z,36.43
2018-04-14T16:01:24.511Z,33.00
2018-04-14T16:03:51.960Z,35.47
2018-04-14T16:06:19.309Z,34.47
2018-04-14T16:08:46.713Z,33.60
2018-04-14T16:11:14.118Z,34.87
2018-04-14T16:13:41.663Z,34.63
2018-04-14T16:16:09.052Z,31.13
2018-04-14T16:18:37.065Z,30.07
2018-04-14T16:21:04.451Z,31.90
2018-04-14T16:23:31.877Z,30.60
2018-04-14T16:25:59.251Z,31.20
2018-04-14T16:28:26.647Z,30.53
2018-04-14T16:30:54.040Z,31.50
2018-04-14T16:33:21.427Z,30.07
2018-04-14T16:35:48.823Z,31.33
2018-04-14T16:38:16.217Z,32.20
2018-04-14T16:40:43.611Z,31.47
2018-04-14T16:43:10.996Z,30.97
2018-04-14T16:45:38.383Z,31.60
2018-04-14T16:48:05.791Z,31.47
2018-04-14T16:50:33.167Z,31.77
2018-04-14T16:53:00.555Z,34.50
2018-04-14T16:55:27.955Z,30.37
2018-04-14T16:57:55.368Z,35.10
2018-04-14T17:00:22.764Z,33.30
2018-04-14T17:02:50.154Z,36.93
2018-04-14T17:05:17.558Z,31.73
2018-04-14T17:07:44.971Z,34.80
2018-04-14T17:10:12.380Z,31.90
2018-04-14T17:12:39.763Z,35.13
2018-04-14T17:15:07.163Z,36.03
2018-04-14T17:17:34.555Z,39.17
2018-04-14T17:20:01.947Z,36.00
2018-04-14T17:22:29.335Z,40.90
2018-04-14T17:24:56.727Z,36.53
2018-04-14T17:27:24.107Z,38.50
2018-04-14T17:29:51.509Z,42.93
2018-04-14T17:32:18.891Z,39.70
2018-04-14T17:34:46.295Z,37.63
2018-04-14T17:37:13.683Z,36.20
2018-04-14T17:39:41.071Z,42.40
2018-04-14T17:42:08.486Z,35.90
2018-04-14T17:44:35.878Z,36.47
2018-04-14T17:47:03.274Z,35.70
2018-04-14T17:49:30.671Z,41.03
2018-04-14T17:51:58.063Z,41.40
2018-04-14T17:54:25.451Z,38.60
2018-04-14T17:56:53.760Z,39.40
2018-04-14T17:59:21.147Z,39.37
2018-04-14T18:01:48.558Z,37.33
2018-04-14T18:04:15.948Z,45.23
2018-04-14T18:06:43.326Z,36.50
2018-04-14T18:09:10.723Z,41.77
2018-04-14T18:11:38.138Z,36.07
2018-04-14T18:14:05.524Z,36.33
2018-04-14T18:16:32.910Z,35.63
2018-04-14T18:19:00.308Z,34.60
2018-04-14T18:21:27.694Z,33.97
2018-04-14T18:23:55.111Z,34.13
2018-04-14T18:26:22.494Z,40.43
2018-04-14T18:28:49.883Z,34.50
2018-04-14T18:31:17.278Z,32.97
2018-04-14T18:33:44.667Z,36.17
2018-04-14T18:36:12.064Z,40.47
2018-04-14T18:38:39.455Z,34.57
2018-04-14T18:41:06.847Z,35.00
2018-04-14T18:43:34.237Z,39.03
2018-04-14T18:46:01.647Z,36.87
2018-04-14T18:48:29.039Z,44.20
2018-04-14T18:50:56.883Z,34.20
2018-04-14T18:53:24.347Z,35.50
2018-04-14T18:55:51.735Z,37.77
2018-04-14T18:58:19.135Z,43.63
2018-04-14T19:00:46.532Z,32.80
2018-04-14T19:03:13.931Z,34.97
2018-04-14T19:05:41.319Z,30.90
2018-04-14T19:08:08.711Z,33.60
2018-04-14T19:10:36.107Z,33.27
2018-04-14T19:13:03.506Z,35.50
2018-04-14T19:15:30.908Z,37.67
2018-04-14T19:17:58.330Z,35.87
2018-04-14T19:20:25.681Z,32.80
2018-04-14T19:22:53.071Z,34.33
2018-04-14T19:25:20.533Z,34.80
2018-04-14T19:27:47.912Z,38.00
2018-04-14T19:30:15.303Z,39.13
2018-04-14T19:32:42.715Z,35.90
2018-04-14T19:35:10.112Z,37.03
2018-04-14T19:37:37.553Z,35.90
2018-04-14T19:40:04.907Z,35.10
2018-04-14T19:42:33.294Z,36.13
2018-04-14T19:45:00.703Z,35.20
2018-04-14T19:47:28.099Z,35.47
2018-04-14T19:49:55.480Z,36.30
2018-04-14T19:52:22.875Z,36.03
2018-04-14T19:54:50.266Z,36.07
2018-04-14T19:57:17.662Z,36.30
2018-04-14T19:59:45.094Z,33.43
2018-04-14T20:02:12.739Z,33.90
2018-04-14T20:04:40.128Z,34.07
2018-04-14T20:07:07.525Z,34.53
2018-04-14T20:09:34.906Z,32.80
2018-04-14T20:12:02.292Z,32.07
2018-04-14T20:14:29.684Z,33.80
2018-04-14T20:16:57.077Z,32.03
2018-04-14T20:19:24.467Z,32.47
2018-04-14T20:21:51.858Z,33.37
2018-04-14T20:24:19.252Z,31.10
2018-04-14T20:26:46.647Z,32.33
2018-04-14T20:29:14.032Z,34.40
2018-04-14T20:31:41.432Z,33.70
2018-04-14T20:34:08.818Z,36.77
2018-04-14T20:36:36.221Z,33.00
2018-04-14T20:39:03.613Z,35.23
2018-04-14T20:41:31.439Z,35.30
2018-04-14T20:43:58.839Z,33.83
2018-04-14T20:46:26.226Z,34.23
2018-04-14T20:48:53.623Z,35.10
2018-04-14T20:51:21.007Z,36.40
2018-04-14T20:53:48.394Z,37.67
2018-04-14T20:56:15.782Z,35.83
2018-04-14T20:58:43.180Z,36.33
2018-04-14T21:01:10.563Z,36.37
2018-04-14T21:03:37.947Z,35.87
2018-04-14T21:06:05.401Z,36.00
2018-04-14T21:08:32.804Z,36.23
2018-04-14T21:11:00.198Z,35.00
2018-04-14T21:13:27.587Z,35.60
2018-04-14T21:15:55.238Z,33.80
2018-04-14T21:18:22.627Z,33.00
2018-04-14T21:20:50.027Z,37.23
2018-04-14T21:23:17.411Z,33.80
2018-04-14T21:25:44.801Z,33.73
2018-04-14T21:28:12.195Z,34.00
2018-04-14T21:30:39.584Z,33.17
2018-04-14T21:33:06.982Z,32.73
2018-04-14T21:35:34.371Z,32.57
2018-04-14T21:38:01.782Z,32.53
2018-04-14T21:40:29.170Z,32.03
2018-04-14T21:42:56.559Z,33.53
2018-04-14T21:45:23.948Z,32.27
2018-04-14T21:47:51.336Z,30.57
2018-04-14T21:50:18.726Z,30.73
2018-04-14T21:52:46.110Z,32.03
2018-04-14T21:55:13.503Z,30.87
2018-04-14T21:57:40.894Z,30.47
2018-04-14T22:00:08.292Z,30.90
2018-04-14T22:02:35.680Z,31.97
2018-04-14T22:05:03.070Z,29.50
2018-04-14T22:07:30.454Z,31.60
2018-04-14T22:09:57.851Z,31.10
2018-04-14T22:12:25.487Z,28.57
2018-04-14T22:14:53.227Z,27.67
2018-04-14T22:17:20.627Z,28.40
2018-04-14T22:19:48.020Z,26.00
2018-04-14T22:22:15.426Z,26.63
2018-04-14T22:24:42.811Z,26.37
2018-04-14T22:27:10.210Z,27.97
2018-04-14T22:29:37.602Z,27.50
2018-04-14T22:32:05.183Z,28.20
2018-04-14T22:34:32.566Z,28.07
2018-04-14T22:36:59.958Z,27.93
2018-04-14T22:39:27.371Z,26.37
2018-04-14T22:41:54.743Z,27.80
2018-04-14T22:44:22.151Z,27.17
2018-04-14T22:46:49.543Z,27.77
2018-04-14T22:49:16.939Z,28.37
2018-04-14T22:51:44.336Z,28.57
2018-04-14T22:54:11.723Z,26.23
2018-04-14T22:56:39.118Z,28.10
2018-04-14T22:59:06.507Z,27.53
2018-04-14T23:01:33.898Z,27.20
2018-04-14T23:04:01.287Z,30.47
2018-04-14T23:06:28.687Z,28.97
2018-04-14T23:08:56.081Z,30.23
2018-04-14T23:11:23.471Z,30.47
2018-04-14T23:13:50.867Z,32.27
2018-04-14T23:16:18.259Z,33.47
2018-04-14T23:18:45.647Z,34.87
2018-04-14T23:21:13.035Z,39.43
2018-04-14T23:23:40.432Z,43.90
2018-04-14T23:26:08.008Z,47.97
2018-04-14T23:28:35.675Z,49.30
2018-04-14T23:31:03.058Z,47.10
2018-04-14T23:33:30.443Z,51.10
2018-04-14T23:35:57.838Z,44.90
2018-04-14T23:38:25.223Z,46.53
2018-04-14T23:40:52.632Z,46.10
2018-04-14T23:43:20.019Z,44.23
2018-04-14T23:45:47.436Z,41.10
2018-04-14T23:48:14.838Z,39.60
2018-04-14T23:50:42.227Z,37.43
2018-04-14T23:58:51.383Z,32.40
